This is the latest recevied weather packets stored in our database for station/object KD8AZC-13. If no packets are shown the sender has not sent any weather packets the latest 10 day(s).
| Time | Temp. | Humidity | Pressure | Rain* | Wind** | Luminosity | Snow |
|---|---|---|---|---|---|---|---|
| 1777921261 | 23.33° C | 37% | 1008.9 hPa | 0 mm | - | - | - |
| 1777918556 | 23.33° C | 36% | 1009.4 hPa | 0 mm | - | - | - |
| 1777915844 | 23.89° C | 36% | 1010 hPa | 0 mm | - | - | - |
| 1777913135 | 21.67° C | 38% | 1010.7 hPa | 0 mm | - | - | - |
| 1777911330 | 21.11° C | 39% | 1011.1 hPa | 0 mm | - | - | - |
| 1777910428 | 21.67° C | 38% | 1011.5 hPa | 0 mm | - | - | - |
| 1777908624 | 21.67° C | 37% | 1011.8 hPa | 0 mm | - | - | - |
| 1777905913 | 20° C | 40% | 1012.2 hPa | 0 mm | - | - | - |
| 1777904106 | 18.89° C | 47% | 1012.3 hPa | 0 mm | - | - | - |
| 1777899649 | 12.78° C | 63% | 1013.3 hPa | 0 mm | - | - | - |
| 1777898743 | 11.67° C | 63% | 1013.3 hPa | 0 mm | - | - | - |
| 1777896033 | 8.89° C | 70% | 1013.8 hPa | 0 mm | - | - | - |
| 1777895133 | 7.78° C | 75% | 1013.9 hPa | 0 mm | - | - | - |
| 1777889717 | 6.67° C | 82% | 1014 hPa | 0 mm | - | - | - |
| 1777886105 | 6.11° C | 77% | 1014.3 hPa | 0 mm | - | - | - |
| 1777878958 | 6.11° C | 77% | 1014.5 hPa | 0 mm | - | - | - |
| 1777869944 | 5.56° C | 75% | 1015.3 hPa | 0 mm | - | - | - |
| 1777866336 | 6.11° C | 69% | 1015.3 hPa | 0 mm | - | - | - |
| 1777865435 | 6.11° C | 66% | 1015.2 hPa | 0 mm | - | - | - |
| 1777864536 | 6.11° C | 69% | 1015.3 hPa | 0 mm | - | - | - |
| 1777860031 | 7.78° C | 65% | 1015.1 hPa | 0 mm | - | - | - |
| 1777859130 | 7.78° C | 60% | 1014.8 hPa | 0 mm | - | - | - |
| 1777857330 | 8.89° C | 55% | 1014.5 hPa | 0 mm | - | - | - |
| 1777856430 | 9.44° C | 53% | 1014.4 hPa | 0 mm | - | - | - |
| 1777855540 | 10° C | 52% | 1014.4 hPa | 0 mm | - | - | - |
* Rain latest hour (hover to see other rain measurements)
** Current wind speed in m/s (hover to see current wind gust speed)